< < Back
Terminal Aerodrome Forecast


Current Version              Previous Versions:   1  2  3  4  5  6  7  8  9  

Terminal Aerodrome Forecast

840
FTUS44 KMOB 060522
TAFMOB
TAF
KMOB 060522Z 0606/0706 08004KT P6SM SCT070 SCT250
     FM061500 10007KT P6SM SCT060 SCT250
     FM061900 15011KT P6SM SCT060 SCT250=

Latest METAR

322
SAUS80 KWBC 061800
MTRMOB
METAR KMOB 061756Z 15006KT 10SM BKN035 BKN060 BKN200 27/17 A3010 RMK AO2
SLP191 T02670172 10283 20178 58013


USA.gov is the U.S. government's official web portal to all federal, state and local government web resources and services.